Angier, North Carolina
Current Conditions -  °F | °C
As of 10:55 AM on Tuesday 21 Oct 2014 (Local Time) from KHRJ Reporting Station
Clear Clear  
Wind Chill: 67°   Ceiling: Unl
Heat Index: 67°   Visibility: 10mi
Dew Point: 52°   Wind: 3mph
Humidity: 58%   Direction: 270°W
Pressure: 29.93"   Gusts: NA
Location:  35.51°N, 78.74°W
Report Text: KHRJ 211455Z AUTO 27003KT 10SM CLR 19/11 A2993 RMK AO2 T01940110
Loading
Personal Weather Stations






























Interactive Weather Map
Tropical Storm Tracking
New forecast layout! Learn more

10-Day Weather Forecast

Advertisements
Track Severe Weather on mobile